Time;durP1;ratioP1;P1;durP2;ratioP2;P2;SDS_P1;SDS_P2;PMS_P1;PMS_P2;Temp;Humidity;BMP_temperature;BMP_pressure;BME280_temperature;BME280_humidity;BME280_pressure;Samples;Min_cycle;Max_cycle;Signal;HPM_P1;HPM_P2
2022/10/17 00:01:19;;;;;;;5.70;2.63;;;;;;;15.51;100.00;100279.69;5057929;28;19923;-82
2022/10/17 00:03:45;;;;;;;5.80;2.05;;;;;;;15.54;100.00;100281.72;5056880;28;20086;-81
2022/10/17 00:06:14;;;;;;;4.55;2.35;;;;;;;15.54;100.00;100281.72;5058189;28;20025;-82
2022/10/17 00:08:42;;;;;;;4.78;2.50;;;;;;;15.49;100.00;100286.72;5057064;28;20040;-80
2022/10/17 00:11:20;;;;;;;5.93;2.72;;;;;;;15.56;100.00;100286.81;5058258;28;20021;-82
2022/10/17 00:13:48;;;;;;;4.78;2.60;;;;;;;15.51;100.00;100281.66;5055259;28;20029;-81
2022/10/17 00:16:15;;;;;;;4.90;2.42;;;;;;;15.60;100.00;100279.47;5057002;28;20032;-80
2022/10/17 00:18:43;;;;;;;4.40;2.25;;;;;;;15.57;100.00;100280.19;5058173;28;20416;-81
2022/10/17 00:21:16;;;;;;;5.45;2.38;;;;;;;15.63;100.00;100278.78;5057998;28;20029;-80
2022/10/17 00:23:45;;;;;;;6.82;2.63;;;;;;;15.49;100.00;100278.47;5056587;28;20020;-81
2022/10/17 00:26:10;;;;;;;4.97;2.60;;;;;;;15.50;100.00;100280.84;5058373;28;20025;-80
2022/10/17 00:28:36;;;;;;;;;;;;;;;15.66;100.00;100275.28;5058522;28;20111;-81
2022/10/17 00:31:05;;;;;;;5.73;2.50;;;;;;;15.68;100.00;100267.47;5054253;28;19909;-82
2022/10/17 00:33:32;;;;;;;4.55;2.25;;;;;;;15.85;100.00;100264.25;5055252;28;20021;-81
2022/10/17 00:36:12;;;;;;;5.68;2.60;;;;;;;15.80;100.00;100256.34;5054921;28;20025;-83
2022/10/17 00:38:38;;;;;;;8.23;2.70;;;;;;;15.86;100.00;100260.34;5053527;28;20103;-84
2022/10/17 00:41:03;;;;;;;;;;;;;;;15.92;100.00;100258.88;5055284;28;20021;-84
2022/10/17 00:43:51;;;;;;;5.63;2.80;;;;;;;15.88;100.00;100263.53;5054562;28;19916;-82
2022/10/17 00:46:16;;;;;;;4.82;2.05;;;;;;;15.89;100.00;100253.31;5047315;28;20037;-82
2022/10/17 00:48:42;;;;;;;;;;;;;;;15.89;100.00;100259.59;5054934;28;20052;-82
2022/10/17 00:51:07;;;;;;;5.18;2.33;;;;;;;16.03;100.00;100261.81;5053440;28;19908;-83
2022/10/17 00:53:35;;;;;;;;;;;;;;;15.98;100.00;100261.31;5054998;28;20029;-81
2022/10/17 00:56:00;;;;;;;7.53;2.97;;;;;;;15.91;100.00;100251.00;5054701;28;20452;-83
2022/10/17 00:58:25;;;;;;;;;;;;;;;15.95;100.00;100258.13;5055279;28;20143;-83
2022/10/17 01:00:51;;;;;;;5.03;2.40;;;;;;;15.99;100.00;100255.47;5037594;28;19913;-82
2022/10/17 01:03:16;;;;;;;;;;;;;;;15.93;100.00;100257.72;5037020;28;20271;-82
2022/10/17 01:05:42;;;;;;;5.05;2.85;;;;;;;15.92;100.00;100261.63;5054232;28;20392;-82
2022/10/17 01:08:07;;;;;;;;;;;;;;;16.12;100.00;100256.84;5054441;28;20446;-81
2022/10/17 01:10:53;;;;;;;5.25;2.67;;;;;;;16.28;100.00;100258.63;5054379;28;19908;-79
2022/10/17 01:13:40;;;;;;;4.80;2.28;;;;;;;16.19;100.00;100259.72;5054409;28;20122;-83
2022/10/17 01:16:16;;;;;;;6.38;2.85;;;;;;;16.22;100.00;100266.41;5054453;28;20037;-79
2022/10/17 01:19:05;;;;;;;5.80;2.80;;;;;;;16.27;100.00;100255.09;5036192;28;20021;-79
2022/10/17 01:21:36;;;;;;;4.45;2.13;;;;;;;16.29;100.00;100252.78;5054204;28;20036;-82
2022/10/17 01:24:13;;;;;;;8.82;2.65;;;;;;;16.39;100.00;100254.91;5036074;28;20024;-82
2022/10/17 01:27:03;;;;;;;4.57;2.25;;;;;;;16.51;100.00;100251.16;5054051;28;20043;-81
2022/10/17 01:30:14;;;;;;;5.78;2.50;;;;;;;16.64;98.89;100259.97;5053870;28;20056;-79
2022/10/17 01:32:51;;;;;;;5.43;2.67;;;;;;;16.59;99.01;100250.06;5053675;28;20025;-81
2022/10/17 01:35:41;;;;;;;5.32;2.17;;;;;;;16.56;99.24;100259.06;5053807;28;20029;-81
2022/10/17 01:38:33;;;;;;;4.53;2.38;;;;;;;16.58;99.05;100255.94;5054125;28;20035;-80
2022/10/17 01:41:18;;;;;;;5.15;2.17;;;;;;;16.79;97.87;100259.00;5053255;28;20123;-81
2022/10/17 01:43:53;;;;;;;5.50;2.65;;;;;;;16.67;98.40;100253.75;5053446;28;20037;-81
2022/10/17 01:46:23;;;;;;;4.53;2.20;;;;;;;16.64;98.21;100248.97;5053516;28;20047;-81
2022/10/17 01:48:48;;;;;;;4.57;2.30;;;;;;;16.59;98.81;100250.06;5053629;28;20035;-80
2022/10/17 01:51:17;;;;;;;;;;;;;;;16.63;98.18;100245.44;5054075;28;20025;-82
2022/10/17 01:53:51;;;;;;;4.20;2.00;;;;;;;16.63;97.92;100255.63;5053490;28;19912;-80
2022/10/17 01:56:18;;;;;;;4.25;2.28;;;;;;;16.63;98.11;100237.19;5036310;28;20132;-79
2022/10/17 01:58:50;;;;;;;4.32;2.03;;;;;;;16.67;97.94;100249.06;5053477;28;20053;-80
2022/10/17 02:01:18;;;;;;;5.03;2.47;;;;;;;16.65;97.90;100242.31;5053391;28;20033;-82
2022/10/17 02:03:46;;;;;;;5.25;2.10;;;;;;;16.67;97.46;100238.06;5053075;28;20032;-81
2022/10/17 02:06:11;;;;;;;5.18;2.28;;;;;;;16.65;97.63;100236.81;5053289;28;20052;-82
2022/10/17 02:08:44;;;;;;;;;;;;;;;16.67;97.68;100238.06;5053517;28;20064;-81
2022/10/17 02:11:30;;;;;;;4.07;1.95;;;;;;;16.60;97.94;100234.38;5053175;28;19938;-82
2022/10/17 02:14:14;;;;;;;8.13;2.78;;;;;;;16.60;97.81;100231.63;5034653;28;20511;-81
2022/10/17 02:16:58;;;;;;;6.63;1.95;;;;;;;16.61;98.02;100235.94;5034920;28;20469;-82
2022/10/17 02:19:46;;;;;;;5.43;2.00;;;;;;;16.60;97.97;100228.88;5052964;28;20377;-82
2022/10/17 02:22:32;;;;;;;3.92;2.30;;;;;;;16.57;97.84;100222.16;5053015;28;20029;-80
2022/10/17 02:24:58;;;;;;;4.45;2.13;;;;;;;16.69;97.57;100229.44;5052870;28;20100;-80
2022/10/17 02:27:42;;;;;;;;;;;;;;;16.61;97.85;100222.22;5053230;28;20048;-83
2022/10/17 02:30:15;;;;;;;4.03;1.55;;;;;;;16.69;97.15;100215.69;5052611;28;19962;-81
2022/10/17 02:33:04;;;;;;;6.10;2.17;;;;;;;16.56;97.89;100217.84;5052466;28;20035;-82
2022/10/17 02:35:34;;;;;;;4.72;2.40;;;;;;;16.70;97.46;100218.06;5052567;28;20036;-81
2022/10/17 02:38:02;;;;;;;4.05;2.05;;;;;;;16.67;97.14;100215.28;5052587;28;20452;-82
2022/10/17 02:40:30;;;;;;;3.72;2.00;;;;;;;16.73;97.12;100224.75;5052992;28;20020;-81
2022/10/17 02:42:58;;;;;;;13.80;2.75;;;;;;;16.64;97.69;100227.78;5052999;28;20413;-82
2022/10/17 02:45:26;;;;;;;5.00;2.20;;;;;;;16.71;97.17;100221.59;5052930;28;20024;-82
2022/10/17 02:48:01;;;;;;;5.22;2.42;;;;;;;16.65;97.36;100223.06;5034708;28;20032;-82
2022/10/17 02:50:41;;;;;;;4.10;2.20;;;;;;;16.72;96.88;100228.69;5052544;28;20031;-81
2022/10/17 02:53:16;;;;;;;6.13;2.40;;;;;;;16.63;97.45;100233.63;5034195;28;20124;-82
2022/10/17 02:55:56;;;;;;;7.80;2.35;;;;;;;16.59;97.47;100230.81;5034459;28;20031;-82
2022/10/17 02:58:27;;;;;;;4.10;2.10;;;;;;;16.53;98.02;100233.13;5036212;28;20103;-80
2022/10/17 03:00:53;;;;;;;5.05;2.15;;;;;;;16.61;97.34;100230.44;5034562;28;20048;-82
2022/10/17 03:03:26;;;;;;;;;;;;;;;16.59;97.50;100219.03;5051437;28;20053;-83
2022/10/17 03:05:52;;;;;;;5.68;2.63;;;;;;;16.55;97.56;100225.28;5052699;28;19909;-83
2022/10/17 03:08:17;;;;;;;;;;;;;;;16.75;96.23;100231.47;5052458;28;20025;-83
2022/10/17 03:10:43;;;;;;;4.20;1.90;;;;;;;16.71;96.37;100224.34;5052308;28;19961;-81
2022/10/17 03:13:08;;;;;;;;;;;;;;;16.80;95.86;100224.88;5052821;28;20029;-83
2022/10/17 03:15:34;;;;;;;4.57;2.13;;;;;;;16.76;96.02;100224.00;5052104;28;19912;-78
2022/10/17 03:17:59;;;;;;;;;;;;;;;16.74;95.80;100215.34;5052242;28;20044;-84
2022/10/17 03:20:25;;;;;;;4.60;2.28;;;;;;;16.80;95.48;100219.38;5052538;28;19962;-82
2022/10/17 03:22:50;;;;;;;;;;;;;;;16.91;94.48;100220.28;5051320;28;20437;-82
2022/10/17 03:25:15;;;;;;;4.07;1.88;;;;;;;16.86;94.69;100231.63;5052053;28;19939;-83
2022/10/17 03:27:41;;;;;;;;;;;;;;;16.88;94.67;100232.03;5052795;28;20033;-80
2022/10/17 03:30:08;;;;;;;5.20;2.20;;;;;;;16.91;94.68;100236.78;5050458;28;20361;-80
2022/10/17 03:32:33;;;;;;;3.75;1.80;;;;;;;16.76;95.09;100235.81;5052079;28;20732;-82
2022/10/17 03:34:59;;;;;;;;;;;;;;;16.91;94.26;100241.47;5050988;28;20029;-82
2022/10/17 03:37:25;;;;;;;5.70;2.10;;;;;;;16.93;93.71;100248.19;5051833;28;20333;-80
2022/10/17 03:39:50;;;;;;;;;;;;;;;16.87;93.89;100241.44;5052309;28;20029;-82
2022/10/17 03:42:15;;;;;;;3.73;1.67;;;;;;;16.91;93.72;100247.78;5052109;28;19963;-80
2022/10/17 03:44:40;;;;;;;;;;;;;;;16.84;93.98;100242.19;5051980;28;20025;-81
2022/10/17 03:47:06;;;;;;;4.82;2.13;;;;;;;16.84;93.81;100244.94;5052115;28;19920;-80
2022/10/17 03:49:32;;;;;;;;;;;;;;;16.86;93.94;100250.06;5051162;28;20021;-84
2022/10/17 03:51:57;;;;;;;4.80;1.80;;;;;;;16.83;93.86;100249.66;5051720;28;19913;-82
2022/10/17 03:54:23;;;;;;;;;;;;;;;16.77;94.62;100248.38;5052231;28;20074;-83
2022/10/17 03:56:48;;;;;;;5.15;1.98;;;;;;;16.82;94.02;100241.78;5051762;28;20361;-82
2022/10/17 03:59:13;;;;;;;;;;;;;;;16.84;94.04;100244.94;5052012;28;20045;-84
2022/10/17 04:01:39;;;;;;;3.80;2.00;;;;;;;16.82;93.81;100245.31;5033884;28;19912;-84
2022/10/17 04:04:04;;;;;;;;;;;;;;;16.77;94.02;100248.38;5034027;28;20024;-87
2022/10/17 04:06:30;;;;;;;4.33;2.13;;;;;;;16.71;94.48;100240.84;5036560;28;20456;-84
2022/10/17 04:08:55;;;;;;;;;;;;;;;16.82;94.13;100255.53;5054898;28;20246;-85
2022/10/17 04:11:20;;;;;;;4.18;1.90;;;;;;;16.81;94.02;100264.94;5037545;28;19921;-84
2022/10/17 04:13:46;;;;;;;;;;;;;;;16.77;93.96;100264.09;5037769;28;20041;-87
2022/10/17 04:16:14;;;;;;;5.10;2.17;;;;;;;16.84;93.38;100258.69;5055144;28;20384;-85
2022/10/17 04:18:39;;;;;;;4.43;2.05;;;;;;;16.89;93.16;100261.09;5037530;28;20025;-86
2022/10/17 04:21:05;;;;;;;;;;;;;;;16.90;92.84;100259.94;5055495;28;20031;-83
2022/10/17 04:23:31;;;;;;;3.17;1.48;;;;;;;16.96;92.72;100266.69;5037177;28;19912;-83
2022/10/17 04:25:57;;;;;;;;;;;;;;;16.97;92.38;100262.00;5037582;28;20389;-86
2022/10/17 04:28:24;;;;;;;5.68;2.10;;;;;;;16.98;92.02;100256.13;5037356;28;19912;-82
2022/10/17 04:31:00;;;;;;;4.72;2.20;;;;;;;16.98;92.04;100261.63;5037440;28;20029;-86
2022/10/17 04:33:27;;;;;;;;;;;;;;;16.91;92.51;100269.00;5037870;28;20071;-85
2022/10/17 04:35:57;;;;;;;5.05;1.95;;;;;;;16.92;92.49;100281.56;5055222;28;19952;-82
2022/10/17 04:38:23;;;;;;;3.38;2.00;;;;;;;16.88;92.40;100278.00;5054327;28;20044;-84
2022/10/17 04:40:49;;;;;;;;;;;;;;;16.94;92.42;100273.72;5054982;28;20450;-84
2022/10/17 04:43:15;;;;;;;5.00;2.17;;;;;;;17.05;91.49;100269.97;5055317;28;19909;-83
2022/10/17 04:45:40;;;;;;;;;;;;;;;17.08;91.10;100274.72;5055253;28;20366;-85
2022/10/17 04:48:05;;;;;;;5.57;1.95;;;;;;;17.00;91.67;100256.53;5054195;28;20293;-82
2022/10/17 04:50:31;;;;;;;;;;;;;;;17.14;91.03;100266.94;5055081;28;20060;-85
2022/10/17 04:52:59;;;;;;;5.87;1.67;;;;;;;17.10;91.18;100277.88;5054826;28;19919;-81
2022/10/17 04:55:24;;;;;;;3.88;2.08;;;;;;;17.01;91.17;100280.13;5054292;28;20061;-83
2022/10/17 04:57:50;;;;;;;;;;;;;;;17.02;91.37;100280.94;5036832;28;20115;-86
2022/10/17 05:00:15;;;;;;;4.97;2.42;;;;;;;17.03;91.10;100288.81;5054702;28;20012;-84
2022/10/17 05:02:44;;;;;;;;;;;;;;;17.08;90.97;100285.72;5054999;28;20473;-85
2022/10/17 05:05:09;;;;;;;4.30;2.20;;;;;;;17.03;91.09;100288.00;5054401;28;19909;-87
2022/10/17 05:07:38;;;;;;;;;;;;;;;17.00;91.01;100286.81;5054688;28;20078;-88
2022/10/17 05:10:03;;;;;;;4.13;2.10;;;;;;;17.02;91.37;100292.72;5054646;28;19915;-87
2022/10/17 05:12:28;;;;;;;;;;;;;;;16.96;91.26;100287.91;5054056;28;20032;-86
2022/10/17 05:14:55;;;;;;;4.40;1.80;;;;;;;17.03;90.77;100288.81;5054015;28;19959;-86
2022/10/17 05:17:20;;;;;;;;;;;;;;;17.11;90.35;100295.16;5036194;28;20037;-87
2022/10/17 05:19:47;;;;;;;3.23;1.60;;;;;;;17.07;90.36;100292.38;5054601;28;19912;-86
2022/10/17 05:22:12;;;;;;;3.92;1.73;;;;;;;17.04;90.74;100295.09;5036406;28;20115;-82
2022/10/17 05:24:38;;;;;;;;;;;;;;;17.02;90.94;100297.44;5054924;28;20087;-87
2022/10/17 05:27:03;;;;;;;4.00;2.20;;;;;;;17.01;90.63;100282.88;5037055;28;19963;-87
2022/10/17 05:29:28;;;;;;;;;;;;;;;16.90;91.09;100286.66;5054940;28;20032;-85
2022/10/17 05:31:53;;;;;;;4.37;1.90;;;;;;;16.94;91.12;100285.53;5055774;28;19909;-84
2022/10/17 05:34:19;;;;;;;;;;;;;;;16.80;91.66;100297.16;5057490;28;20018;-85
2022/10/17 05:36:44;;;;;;;6.63;2.20;;;;;;;16.94;90.88;100296.53;5054444;28;19908;-86
2022/10/17 05:39:11;;;;;;;;;;;;;;;16.86;91.47;100299.56;5056277;28;20274;-86
2022/10/17 05:41:36;;;;;;;3.72;1.92;;;;;;;17.00;90.92;100300.56;5055372;28;19913;-85
2022/10/17 05:44:01;;;;;;;;;;;;;;;16.97;90.78;100309.56;5037576;28;20040;-85
2022/10/17 05:46:26;;;;;;;4.97;2.07;;;;;;;16.90;90.95;100314.94;5053970;28;19932;-86
2022/10/17 05:48:54;;;;;;;;;;;;;;;16.95;90.88;100313.81;5040460;28;20436;-91
2022/10/17 05:51:21;;;;;;;6.35;2.38;;;;;;;16.90;91.09;100322.41;5055158;28;19908;-83
2022/10/17 05:53:46;;;;;;;3.88;2.13;;;;;;;16.94;90.69;100320.50;5019954;28;20135;-91
2022/10/17 05:56:12;;;;;;;;;;;;;;;16.90;90.47;100325.94;5055146;28;20397;-88
2022/10/17 05:58:43;;;;;;;4.00;1.95;;;;;;;16.96;90.07;100321.69;5055242;28;19912;-88
2022/10/17 06:01:09;;;;;;;3.72;2.00;;;;;;;16.92;90.33;100326.38;5037102;28;20025;-85
2022/10/17 06:03:34;;;;;;;;;;;;;;;16.94;90.24;100323.25;5037121;28;20035;-86
2022/10/17 06:06:04;;;;;;;7.05;2.10;;;;;;;17.06;89.51;100331.28;5035837;28;19963;-87
2022/10/17 06:08:30;;;;;;;5.55;2.20;;;;;;;16.95;89.54;100328.38;5054735;28;20025;-88
2022/10/17 06:10:55;;;;;;;;;;;;;;;17.07;89.28;100339.16;5054776;28;20021;-86
2022/10/17 06:13:20;;;;;;;4.67;1.90;;;;;;;16.93;89.60;100333.44;5036556;28;20392;-88
2022/10/17 06:15:45;;;;;;;;;;;;;;;16.99;89.62;100333.94;5036989;28;20287;-88
2022/10/17 06:18:11;;;;;;;3.95;1.80;;;;;;;16.93;89.63;100336.19;5037834;28;19921;-86
2022/10/17 06:20:36;;;;;;;;;;;;;;;16.95;89.52;100339.38;5058177;28;20021;-88
2022/10/17 06:23:02;;;;;;;10.65;2.15;;;;;;;17.00;89.26;100349.28;5056539;28;19932;-86
2022/10/17 06:25:32;;;;;;;;;;;;;;;16.89;89.95;100346.38;5041650;28;20036;-89
2022/10/17 06:27:58;;;;;;;5.65;2.53;;;;;;;16.90;89.76;100353.44;5040847;28;19920;-85
2022/10/17 06:30:23;;;;;;;;;;;;;;;16.92;89.88;100351.13;5058262;28;20020;-87
2022/10/17 06:32:48;;;;;;;4.80;2.00;;;;;;;16.89;90.06;100349.13;5038194;28;19909;-87
2022/10/17 06:35:14;;;;;;;;;;;;;;;17.00;89.17;100350.06;5057048;28;20125;-85
2022/10/17 06:37:39;;;;;;;4.47;2.10;;;;;;;16.89;89.68;100354.63;5056523;28;19913;-86
2022/10/17 06:40:07;;;;;;;;;;;;;;;16.94;89.73;100356.25;5037694;28;20025;-86
2022/10/17 06:42:33;;;;;;;4.95;2.30;;;;;;;16.91;90.09;100346.78;5054961;28;19908;-87
2022/10/17 06:44:58;;;;;;;;;;;;;;;16.95;89.30;100353.13;5036665;28;20017;-88
2022/10/17 06:47:23;;;;;;;5.00;2.17;;;;;;;16.95;89.20;100358.63;5055440;28;19998;-86
2022/10/17 06:49:49;;;;;;;;;;;;;;;16.93;89.43;100358.22;5035844;28;20474;-89
2022/10/17 06:52:16;;;;;;;3.97;1.80;;;;;;;17.11;88.44;100355.69;5056334;28;19962;-87
2022/10/17 06:54:42;;;;;;;3.33;1.70;;;;;;;17.15;88.27;100353.81;5054650;28;20275;-88
2022/10/17 06:57:08;;;;;;;4.63;1.88;;;;;;;17.10;88.55;100360.41;5055411;28;20124;-86
2022/10/17 06:59:33;;;;;;;;;;;;;;;17.13;88.63;100369.88;5054836;28;20136;-85
2022/10/17 07:02:01;;;;;;;3.77;1.60;;;;;;;17.11;88.19;100370.25;5055449;28;19913;-85
2022/10/17 07:04:27;;;;;;;4.68;2.05;;;;;;;17.10;88.55;100373.38;5055210;28;20116;-87
2022/10/17 07:06:53;;;;;;;6.70;2.22;;;;;;;17.16;88.12;100376.59;5035505;28;20025;-87
2022/10/17 07:09:18;;;;;;;;;;;;;;;17.21;88.05;100379.03;5055713;28;20537;-89
2022/10/17 07:11:48;;;;;;;4.20;2.00;;;;;;;17.27;87.55;100378.31;5053907;28;19988;-86
2022/10/17 07:14:13;;;;;;;7.85;2.25;;;;;;;17.25;87.47;100374.34;5020079;28;20056;-84
2022/10/17 07:16:38;;;;;;;;;;;;;;;17.31;86.96;100365.41;5018554;28;20342;-87
2022/10/17 07:19:04;;;;;;;3.50;1.80;;;;;;;17.35;87.15;100377.25;5034713;28;19909;-84
2022/10/17 07:21:29;;;;;;;;;;;;;;;17.26;87.31;100378.69;5054505;28;20272;-89
2022/10/17 07:23:55;;;;;;;4.45;2.20;;;;;;;17.26;87.73;100381.44;5053089;28;20011;-86
2022/10/17 07:26:20;;;;;;;4.18;1.60;;;;;;;17.42;87.02;100376.53;5036025;28;20025;-86
2022/10/17 07:28:46;;;;;;;;;;;;;;;17.43;86.64;100380.88;5053678;28;20037;-86
2022/10/17 07:31:16;;;;;;;3.92;1.80;;;;;;;17.44;86.17;100383.25;5053246;28;19909;-87
2022/10/17 07:33:42;;;;;;;6.90;1.70;;;;;;;17.58;85.99;100379.09;5035535;28;20088;-87
2022/10/17 07:36:10;;;;;;;6.72;2.03;;;;;;;17.69;85.30;100383.59;5034928;28;20112;-84
2022/10/17 07:38:35;;;;;;;4.57;1.90;;;;;;;17.61;85.93;100381.09;5053469;28;20071;-85
2022/10/17 07:41:02;;;;;;;;;;;;;;;17.86;84.67;100381.41;5024947;28;20036;-87
2022/10/17 07:43:28;;;;;;;4.75;1.90;;;;;;;17.91;84.58;100390.13;5040805;28;20352;-86
2022/10/17 07:45:53;;;;;;;;;;;;;;;17.88;84.62;100387.34;5058913;28;20051;-85
2022/10/17 07:48:21;;;;;;;4.55;2.00;;;;;;;17.67;85.55;100388.66;5058520;28;19959;-86
2022/10/17 07:50:46;;;;;;;5.32;2.58;;;;;;;17.83;85.54;100402.25;5057260;28;20049;-86
2022/10/17 07:53:11;;;;;;;5.03;2.20;;;;;;;17.91;84.60;100403.91;5056617;28;20036;-85
2022/10/17 07:55:37;;;;;;;;;;;;;;;17.86;84.48;100397.94;5056768;28;20152;-87
2022/10/17 07:58:03;;;;;;;4.28;1.75;;;;;;;17.85;84.05;100401.88;5057018;28;20297;-84
2022/10/17 08:00:28;;;;;;;6.13;2.22;;;;;;;17.92;84.33;100396.44;5056525;28;20040;-87
2022/10/17 08:02:54;;;;;;;;;;;;;;;17.86;84.28;100397.94;5057897;28;20033;-85
2022/10/17 08:05:19;;;;;;;3.35;1.50;;;;;;;17.96;84.38;100394.50;5038754;28;19909;-84
2022/10/17 08:07:44;;;;;;;;;;;;;;;18.06;83.62;100391.06;5039138;28;20539;-85
2022/10/17 08:10:14;;;;;;;4.35;2.05;;;;;;;17.95;83.74;100385.44;5056957;28;19909;-86
2022/10/17 08:12:40;;;;;;;4.40;2.08;;;;;;;18.08;83.09;100397.00;5056927;28;20461;-85
2022/10/17 08:15:07;;;;;;;;;;;;;;;18.03;82.78;100409.16;5022931;28;20063;-87
2022/10/17 08:17:37;;;;;;;4.97;1.85;;;;;;;18.05;82.67;100406.00;5041132;28;20000;-85
2022/10/17 08:20:06;;;;;;;5.38;2.00;;;;;;;18.18;82.00;100410.09;5058889;28;20029;-84
2022/10/17 08:22:32;;;;;;;4.53;1.70;;;;;;;18.18;82.34;100412.06;5057828;28;20474;-86
2022/10/17 08:24:58;;;;;;;5.22;1.65;;;;;;;18.29;82.24;100410.19;5040501;28;20025;-84
2022/10/17 08:27:24;;;;;;;4.28;1.98;;;;;;;18.31;81.84;100418.88;5058168;28;20028;-85
2022/10/17 08:29:53;;;;;;;4.65;2.17;;;;;;;18.34;81.63;100443.72;5055701;28;20025;-85
2022/10/17 08:32:20;;;;;;;4.68;1.60;;;;;;;18.47;81.24;100432.38;5037698;28;20025;-84
2022/10/17 08:34:45;;;;;;;6.20;1.63;;;;;;;18.49;81.34;100433.63;5036674;28;20028;-84
2022/10/17 08:37:14;;;;;;;3.88;1.63;;;;;;;18.51;79.84;100444.28;5055167;28;20025;-86
2022/10/17 08:39:40;;;;;;;5.32;1.80;;;;;;;18.60;79.78;100440.00;5039256;28;20430;-84
2022/10/17 08:42:27;;;;;;;3.40;1.67;;;;;;;18.59;79.83;100437.63;5059560;28;20551;-83
2022/10/17 08:45:11;;;;;;;4.15;1.80;;;;;;;18.54;79.96;100438.78;5041642;28;20032;-85
2022/10/17 08:47:45;;;;;;;3.55;1.60;;;;;;;18.51;80.53;100436.00;5056554;28;20032;-85
2022/10/17 08:50:42;;;;;;;3.85;1.85;;;;;;;18.79;79.42;100441.75;5037670;28;20492;-83
2022/10/17 08:53:24;;;;;;;5.72;1.90;;;;;;;18.81;79.09;100447.72;5055405;28;20044;-85
2022/10/17 08:55:52;;;;;;;3.95;1.60;;;;;;;18.76;79.29;100442.53;5056083;28;20380;-85
2022/10/17 08:58:21;;;;;;;7.18;1.70;;;;;;;18.65;79.74;100443.63;5054285;28;20057;-86
2022/10/17 09:01:12;;;;;;;4.32;1.50;;;;;;;18.60;79.92;100444.72;5054068;28;20028;-86
2022/10/17 09:04:02;;;;;;;3.95;1.83;;;;;;;18.64;79.38;100445.56;5026087;28;20103;-84
2022/10/17 09:06:36;;;;;;;5.95;2.70;;;;;;;18.81;78.76;100447.72;5054239;28;20017;-84
2022/10/17 09:09:30;;;;;;;3.03;1.50;;;;;;;18.75;79.12;100446.47;5054143;28;20096;-87
2022/10/17 09:12:04;;;;;;;3.92;1.75;;;;;;;18.72;79.14;100458.25;5053892;28;20128;-85
2022/10/17 09:14:54;;;;;;;4.38;1.80;;;;;;;18.76;79.10;100463.81;5054346;28;20017;-85
2022/10/17 09:17:41;;;;;;;5.43;2.15;;;;;;;18.87;78.69;100472.97;5054122;28;20100;-87
2022/10/17 09:20:29;;;;;;;;;;;;;;;18.88;78.42;100471.78;5055205;28;20024;-86
2022/10/17 09:22:57;;;;;;;;;;;;;;;18.81;78.56;100486.34;5034369;28;19908;-87
2022/10/17 09:25:23;;;;;;;3.50;1.60;;;;;;;18.90;78.18;100481.28;5036105;28;20333;-83
2022/10/17 09:27:58;;;;;;;3.78;1.88;;;;;;;18.82;79.10;100484.38;5035439;28;20048;-86
2022/10/17 09:30:49;;;;;;;4.43;1.90;;;;;;;18.86;78.98;100485.97;5035969;28;20140;-86
2022/10/17 09:33:19;;;;;;;4.10;1.92;;;;;;;18.87;78.72;100495.84;5048829;28;20114;-86
2022/10/17 09:35:49;;;;;;;5.55;1.83;;;;;;;18.85;78.14;100497.41;5053757;28;20029;-84
2022/10/17 09:38:20;;;;;;;3.58;1.80;;;;;;;18.82;78.54;100510.00;5055615;28;20058;-81
2022/10/17 09:40:53;;;;;;;4.97;2.10;;;;;;;18.84;78.88;100502.13;5037003;28;20041;-87
2022/10/17 09:43:19;;;;;;;18.23;2.10;;;;;;;18.91;78.61;100504.13;5054459;28;20495;-88
2022/10/17 09:46:11;;;;;;;5.22;1.83;;;;;;;18.89;79.38;100525.78;5035898;28;20024;-84
2022/10/17 09:49:02;;;;;;;5.10;1.88;;;;;;;18.84;79.49;100513.16;5042841;28;20123;-83
2022/10/17 09:51:29;;;;;;;4.35;2.15;;;;;;;18.76;79.80;100519.75;5044308;28;20059;-85
2022/10/17 09:54:01;;;;;;;3.33;1.80;;;;;;;18.73;80.00;100531.56;5053753;28;20037;-86
2022/10/17 09:56:27;;;;;;;4.20;1.90;;;;;;;18.72;80.08;100534.69;5035374;28;20037;-86
2022/10/17 09:58:57;;;;;;;4.18;2.10;;;;;;;18.69;80.15;100521.69;5052798;28;20053;-86
2022/10/17 10:01:27;;;;;;;6.88;1.98;;;;;;;18.70;80.19;100532.31;5035335;28;20480;-84
2022/10/17 10:04:16;;;;;;;4.18;2.05;;;;;;;18.74;80.53;100543.38;5054818;28;20116;-85
2022/10/17 10:07:05;;;;;;;5.32;2.28;;;;;;;18.72;80.45;100538.25;5035148;28;20048;-85
2022/10/17 10:09:34;;;;;;;4.55;2.10;;;;;;;18.72;80.62;100545.75;5035926;28;20024;-85
2022/10/17 10:12:13;;;;;;;4.13;2.10;;;;;;;18.74;80.43;100548.91;5035371;28;20036;-87
2022/10/17 10:14:39;;;;;;;4.18;2.22;;;;;;;18.77;80.59;100554.44;5036201;28;20025;-86
2022/10/17 10:17:25;;;;;;;4.93;2.22;;;;;;;18.72;80.61;100556.78;5053433;28;20021;-87
2022/10/17 10:19:51;;;;;;;4.32;2.03;;;;;;;18.71;80.55;100564.25;5035614;28;20136;-87
2022/10/17 10:22:19;;;;;;;5.13;2.10;;;;;;;18.67;80.61;100565.41;5035987;28;20111;-89
2022/10/17 10:24:44;;;;;;;4.53;2.20;;;;;;;18.68;80.52;100567.78;5035340;28;20021;-85
2022/10/17 10:27:16;;;;;;;4.60;1.67;;;;;;;18.66;80.43;100567.38;5053345;28;20017;-83
2022/10/17 10:29:49;;;;;;;3.60;1.85;;;;;;;18.62;80.95;100563.72;5034717;28;20029;-85
2022/10/17 10:32:34;;;;;;;4.90;2.25;;;;;;;18.62;80.81;100563.72;5052250;28;20124;-86
2022/10/17 10:35:02;;;;;;;4.97;2.10;;;;;;;18.65;80.56;100553.94;5002493;28;20369;-86
2022/10/17 10:37:33;;;;;;;3.83;2.05;;;;;;;18.66;80.52;100570.13;5054203;28;20470;-88
2022/10/17 10:40:04;;;;;;;6.40;2.38;;;;;;;18.71;80.08;100572.53;5036969;28;20074;-86
2022/10/17 10:42:36;;;;;;;3.55;1.83;;;;;;;18.78;80.17;100575.34;5053931;28;20116;-87
2022/10/17 10:45:22;;;;;;;3.72;1.95;;;;;;;18.82;79.71;100562.41;5037328;28;20029;-90
2022/10/17 10:48:02;;;;;;;4.85;1.90;;;;;;;18.87;79.19;100570.31;5038457;28;20078;-85
2022/10/17 10:50:42;;;;;;;5.25;1.67;;;;;;;18.89;79.00;100579.00;5033993;28;20119;-86
2022/10/17 10:53:36;;;;;;;3.58;1.75;;;;;;;18.87;79.54;100597.91;5053565;28;20473;-88
2022/10/17 10:56:19;;;;;;;5.57;1.90;;;;;;;18.91;79.16;100612.53;5056518;28;20041;-86
2022/10/17 10:58:55;;;;;;;5.00;2.33;;;;;;;18.85;79.76;100616.81;5041798;28;20492;-88
2022/10/17 11:01:40;;;;;;;4.32;1.83;;;;;;;18.81;80.28;100620.69;5056686;28;20039;-89
2022/10/17 11:04:31;;;;;;;4.15;1.80;;;;;;;18.78;80.33;100627.75;5055134;28;20025;-86
2022/10/17 11:07:07;;;;;;;4.43;1.80;;;;;;;18.72;80.72;100629.28;5053463;28;20025;-87
2022/10/17 11:10:02;;;;;;;3.97;1.92;;;;;;;18.73;81.15;100628.09;5053731;28;20044;-86
2022/10/17 11:12:38;;;;;;;4.82;1.98;;;;;;;18.68;81.36;100625.69;5052540;28;20025;-87
2022/10/17 11:15:24;;;;;;;5.30;2.38;;;;;;;18.71;81.48;100638.72;5051284;28;20029;-88
2022/10/17 11:18:20;;;;;;;6.07;1.97;;;;;;;18.70;81.59;100639.09;5051785;28;20059;-86
2022/10/17 11:20:56;;;;;;;4.20;1.75;;;;;;;18.70;81.77;100630.84;5053430;28;20020;-88
2022/10/17 11:23:34;;;;;;;4.72;2.40;;;;;;;18.70;82.27;100620.59;5052974;28;20028;-88
2022/10/17 11:26:05;;;;;;;4.75;2.08;;;;;;;18.70;82.27;100628.88;5051369;28;20459;-87
2022/10/17 11:28:32;;;;;;;5.05;2.33;;;;;;;18.72;82.70;100618.25;5054024;28;20101;-87
2022/10/17 11:31:08;;;;;;;6.22;1.80;;;;;;;18.62;82.82;100613.38;5052004;28;20029;-88
2022/10/17 11:33:49;;;;;;;4.68;1.92;;;;;;;18.55;83.41;100602.25;5034634;28;20035;-85
2022/10/17 11:36:18;;;;;;;4.88;2.15;;;;;;;18.58;85.28;100604.25;5052636;28;20029;-82
2022/10/17 11:38:49;;;;;;;5.10;2.50;;;;;;;18.71;85.03;100589.06;5052831;28;20016;-84
2022/10/17 11:41:25;;;;;;;4.00;2.13;;;;;;;18.60;84.77;100605.47;5050945;28;20489;-86
2022/10/17 11:44:13;;;;;;;5.43;1.88;;;;;;;18.54;85.76;100609.75;5053601;28;20029;-88
2022/10/17 11:46:42;;;;;;;5.90;2.28;;;;;;;18.47;86.07;100606.09;5052877;28;20025;-86
2022/10/17 11:49:19;;;;;;;6.65;2.25;;;;;;;18.53;86.24;100621.16;5051935;28;20036;-85
2022/10/17 11:52:01;;;;;;;4.90;2.30;;;;;;;18.59;85.47;100625.16;5050748;28;20029;-87
2022/10/17 11:54:39;;;;;;;5.20;2.15;;;;;;;18.44;86.43;100626.94;5052891;28;20028;-86
2022/10/17 11:57:43;;;;;;;4.50;2.05;;;;;;;18.42;86.67;100631.25;5035826;28;20025;-87